Hauptseite
METAR-TAF:

METAR-TAF

Flughäfen :

Flughafen Atka

Atka, Alaska, Vereinigte Staaten

Breite: 52-13-13N, Länge: 174-12-23W, Höhe: 17 m

Beobachtung

Neuester Wetterbericht von vor 40 Minuten, um 05:56 UTC
Wind 13 kt aus West/Nordwest
Temperatur -1°C
Luftfeuchtigkeit 69%
Luftdruck 1038 hPa
Sichtweite: 16.1 km
Geschlossene Wolkendecke in der Höhe von 4100 ft

METAR: PAAK 280556Z AUTO 29013KT 10SM OVC041 M01/M06 A3066 RMK AO2 SLP384 60000 T10061061 10006 21006 53001 FZRANO

Zeit: 21:36 (06:36 UTC)


TAF: fehlend

Wetterbeobachtungen und Prognosen von mehr als 4000 Flughäfen (METAR und TAF Bericht).

Die verfügbaren Stationen werden durch gelbe und rote Markierungen auf der Karte dargestellt.

Führen Sie die Maus auf sie, um den Namen der Station zu sehen.

Darauf klicken, um die Beobachtung von Wetterbeobachtungen und Prognosen zu sehen.

Um die Karte zu ändern : klicken Sie auf den grünen Tasten mit einem schwarzen Kreuz Zum Vergrößern, auf den grünen Button mit einem Gedankenstrich zu verkleinern, oder auf die grünen Pfeile für benachbarte Karten.


METAR-TAF: